KTBN/TBN METAR and TAF weather

Enter ICAO airport designator
Station Type Date Time Source
KTBN METAR 2020/09/25 06:56 UTC NOAA

KTBN 250656Z AUTO 17004KT 10SM CLR 13/12 A2995 RMK AO2 SLP140 T01260121


Station Type Date Time Source
KTBN Decoded METAR 2020/09/25 06:56 UTC NOAA

Fort Leonard Wood, MO, United States (KTBN) 37-44N 092-08W
Sep 25, 2020 - 02:56 AM EDT / 2020.09.25 0656 UTC
Wind: from the S (170 degrees) at 5 MPH (4 KT):0
Visibility: 10 mile(s):0
Sky conditions: clear
Temperature: 54.7 F (12.6 C)
Dew Point: 53.8 F (12.1 C)
Relative Humidity: 96%
Pressure (altimeter): 29.95 in. Hg (1014 hPa)
ob: KTBN 250656Z AUTO 17004KT 10SM CLR 13/12 A2995 RMK AO2 SLP140 T01260121
cycle: 7

Station Type Date Time Source
KTBN TAF UTC NOAA

Error!

Example: see airport list